Ashford, Washington
Current Conditions -  °F | °C
As of 1:58 AM on Wednesday 22 Oct 2014 (Local Time) from KGRF Reporting Station
Drizzle Drizzle  
Wind Chill: 57°   Ceiling: 5500
Heat Index: 57°   Visibility: 10mi
Dew Point: 49°   Wind: 15mph
Humidity: 74%   Direction: 140°SE
Pressure: 29.7"   Gusts: NA
Location:  46.76°N, 122.03°W
Report Text: KGRF 220858Z AUTO 14013KT 10SM DZ BKN055 BKN070 14/09 A2970 RMK AO2 RAB0802E0818 SLP061 P0000 60000 T01390094 57024 $
Loading
Personal Weather Stations






























Interactive Weather Map
Tropical Storm Tracking
New forecast layout! Learn more

10-Day Weather Forecast

Advertisements
Track Severe Weather on mobile